Main page
METAR-TAF:

METAR-TAF

Airports :

Athens, Greece

Athens International Airport

latitude: 37-56N, longitude: 023-56E, elevation: 94 m

Current weather observation

The report was made 26 minutes ago, at 15:50 UTC
Wind 8 kt from the Northeast
Temperature 24°C
Humidity 31%
Pressure 1014 hPa
Visibility 10 km or more
no clouds below 1500 m and no cumulonimbus

METAR: LGAV 251550Z 04008KT CAVOK 24/06 Q1014 NOSIG

Time: 19:16 (16:16 UTC)

Forecast

The report was made 5 hours and 16 minutes ago, at 11:00 UTC
Forecast valid from 25 at 12 UTC to 26 at 12 UTC
Wind 8 kt from the East/Southeast
Visibility 10 km or more
Few clouds at a height of 2000 ft
Becoming
from 25 at 16 UTC to 25 at 18 UTC
Wind 3 kt from variable directions
Becoming
from 26 at 06 UTC to 26 at 08 UTC
Wind 10 kt from the North/Northeast

TAF: LGAV 251100Z 2512/2612 12008KT 9999 FEW020 BECMG 2516/2518 VRB03KT BECMG 2606/2608 02010KT

Weather observations and forecasts of more than 4000 airports (METAR and TAF reports).

The available stations are represented by yellow and red dots on the map.

Hover mouse over dot to see the name of the station.

Then click to see weather observations and forecasts.

To change the map : click on the green buttons with a black cross to zoom in, on the green button with a dash to zoom out, or on the green arrows for adjacent maps.


METAR-TAF: